sensor_id;sensor_type;location;lat;lon;timestamp;P1;durP1;ratioP1;P2;durP2;ratioP2
7142;SDS011;3613;48.902;9.204;2022-07-10T00:00:45;8.40;;;7.60;;
7142;SDS011;3613;48.902;9.204;2022-07-10T00:03:10;9.17;;;7.80;;
7142;SDS011;3613;48.902;9.204;2022-07-10T00:05:36;8.83;;;7.90;;
7142;SDS011;3613;48.902;9.204;2022-07-10T00:08:09;7.73;;;6.93;;
7142;SDS011;3613;48.902;9.204;2022-07-10T00:10:34;7.43;;;6.77;;
7142;SDS011;3613;48.902;9.204;2022-07-10T00:13:02;8.50;;;7.20;;
7142;SDS011;3613;48.902;9.204;2022-07-10T00:15:28;8.30;;;6.73;;
7142;SDS011;3613;48.902;9.204;2022-07-10T00:17:56;7.20;;;6.50;;
7142;SDS011;3613;48.902;9.204;2022-07-10T00:20:22;8.40;;;7.23;;
7142;SDS011;3613;48.902;9.204;2022-07-10T00:22:52;8.97;;;7.37;;
7142;SDS011;3613;48.902;9.204;2022-07-10T00:25:18;7.90;;;7.10;;
7142;SDS011;3613;48.902;9.204;2022-07-10T00:27:46;8.27;;;7.43;;
7142;SDS011;3613;48.902;9.204;2022-07-10T00:30:13;8.80;;;7.40;;
7142;SDS011;3613;48.902;9.204;2022-07-10T00:32:39;9.10;;;7.80;;
7142;SDS011;3613;48.902;9.204;2022-07-10T00:35:07;7.87;;;7.17;;
7142;SDS011;3613;48.902;9.204;2022-07-10T00:37:33;8.30;;;7.40;;
7142;SDS011;3613;48.902;9.204;2022-07-10T00:40:02;8.07;;;7.27;;
7142;SDS011;3613;48.902;9.204;2022-07-10T00:42:30;7.93;;;7.23;;
7142;SDS011;3613;48.902;9.204;2022-07-10T00:44:56;7.80;;;7.00;;
7142;SDS011;3613;48.902;9.204;2022-07-10T00:47:21;7.83;;;7.03;;
7142;SDS011;3613;48.902;9.204;2022-07-10T00:49:49;8.53;;;7.63;;
7142;SDS011;3613;48.902;9.204;2022-07-10T00:52:16;9.13;;;7.37;;
7142;SDS011;3613;48.902;9.204;2022-07-10T00:54:43;8.87;;;7.13;;
7142;SDS011;3613;48.902;9.204;2022-07-10T00:57:11;10.40;;;7.93;;
7142;SDS011;3613;48.902;9.204;2022-07-10T00:59:39;8.37;;;7.53;;
7142;SDS011;3613;48.902;9.204;2022-07-10T01:02:05;9.87;;;7.43;;
7142;SDS011;3613;48.902;9.204;2022-07-10T01:04:32;8.47;;;7.57;;
7142;SDS011;3613;48.902;9.204;2022-07-10T01:06:58;7.97;;;7.17;;
7142;SDS011;3613;48.902;9.204;2022-07-10T01:09:24;9.63;;;8.03;;
7142;SDS011;3613;48.902;9.204;2022-07-10T01:11:50;8.77;;;7.77;;
7142;SDS011;3613;48.902;9.204;2022-07-10T01:14:16;9.90;;;8.33;;
7142;SDS011;3613;48.902;9.204;2022-07-10T01:16:44;9.57;;;7.90;;
7142;SDS011;3613;48.902;9.204;2022-07-10T01:19:10;9.03;;;7.73;;
7142;SDS011;3613;48.902;9.204;2022-07-10T01:21:41;11.77;;;8.63;;
7142;SDS011;3613;48.902;9.204;2022-07-10T01:24:07;10.20;;;8.17;;
7142;SDS011;3613;48.902;9.204;2022-07-10T01:26:35;8.57;;;7.70;;
7142;SDS011;3613;48.902;9.204;2022-07-10T01:29:07;9.97;;;8.27;;
7142;SDS011;3613;48.902;9.204;2022-07-10T01:31:33;9.10;;;8.20;;
7142;SDS011;3613;48.902;9.204;2022-07-10T01:34:00;11.13;;;9.00;;
7142;SDS011;3613;48.902;9.204;2022-07-10T01:36:28;9.00;;;7.80;;
7142;SDS011;3613;48.902;9.204;2022-07-10T01:38:55;10.10;;;8.50;;
7142;SDS011;3613;48.902;9.204;2022-07-10T01:41:24;9.33;;;8.00;;
7142;SDS011;3613;48.902;9.204;2022-07-10T01:43:50;13.37;;;8.57;;
7142;SDS011;3613;48.902;9.204;2022-07-10T01:46:21;10.67;;;8.17;;
7142;SDS011;3613;48.902;9.204;2022-07-10T01:48:46;10.70;;;8.43;;
7142;SDS011;3613;48.902;9.204;2022-07-10T01:51:13;11.13;;;9.10;;
7142;SDS011;3613;48.902;9.204;2022-07-10T01:53:39;10.13;;;8.23;;
7142;SDS011;3613;48.902;9.204;2022-07-10T01:56:06;10.07;;;9.07;;
7142;SDS011;3613;48.902;9.204;2022-07-10T01:58:39;10.97;;;8.80;;
7142;SDS011;3613;48.902;9.204;2022-07-10T02:01:05;10.27;;;9.17;;
7142;SDS011;3613;48.902;9.204;2022-07-10T02:03:31;9.17;;;8.27;;
7142;SDS011;3613;48.902;9.204;2022-07-10T02:06:15;10.20;;;7.93;;
7142;SDS011;3613;48.902;9.204;2022-07-10T02:08:43;10.77;;;7.73;;
7142;SDS011;3613;48.902;9.204;2022-07-10T02:11:11;9.43;;;7.73;;
7142;SDS011;3613;48.902;9.204;2022-07-10T02:13:37;9.00;;;7.73;;
7142;SDS011;3613;48.902;9.204;2022-07-10T02:16:03;9.77;;;7.73;;
7142;SDS011;3613;48.902;9.204;2022-07-10T02:18:29;8.73;;;7.33;;
7142;SDS011;3613;48.902;9.204;2022-07-10T02:20:57;8.97;;;7.90;;
7142;SDS011;3613;48.902;9.204;2022-07-10T02:23:25;9.93;;;8.47;;
7142;SDS011;3613;48.902;9.204;2022-07-10T02:25:51;9.50;;;8.50;;
7142;SDS011;3613;48.902;9.204;2022-07-10T02:28:19;10.30;;;7.83;;
7142;SDS011;3613;48.902;9.204;2022-07-10T02:30:44;13.00;;;8.53;;
7142;SDS011;3613;48.902;9.204;2022-07-10T02:33:10;11.37;;;9.20;;
7142;SDS011;3613;48.902;9.204;2022-07-10T02:35:35;11.80;;;8.67;;
7142;SDS011;3613;48.902;9.204;2022-07-10T02:38:06;13.27;;;9.43;;
7142;SDS011;3613;48.902;9.204;2022-07-10T02:40:31;10.10;;;8.80;;
7142;SDS011;3613;48.902;9.204;2022-07-10T02:42:57;11.87;;;9.60;;
7142;SDS011;3613;48.902;9.204;2022-07-10T02:45:22;15.63;;;9.33;;
7142;SDS011;3613;48.902;9.204;2022-07-10T02:47:50;12.40;;;9.53;;
7142;SDS011;3613;48.902;9.204;2022-07-10T02:50:16;10.60;;;9.50;;
7142;SDS011;3613;48.902;9.204;2022-07-10T02:52:42;10.27;;;9.20;;
7142;SDS011;3613;48.902;9.204;2022-07-10T02:55:08;12.27;;;10.00;;
7142;SDS011;3613;48.902;9.204;2022-07-10T02:57:34;11.17;;;9.97;;
7142;SDS011;3613;48.902;9.204;2022-07-10T03:00:00;12.87;;;10.77;;
7142;SDS011;3613;48.902;9.204;2022-07-10T03:02:25;12.87;;;9.77;;
7142;SDS011;3613;48.902;9.204;2022-07-10T03:04:51;12.13;;;9.57;;
7142;SDS011;3613;48.902;9.204;2022-07-10T03:07:19;11.57;;;10.07;;
7142;SDS011;3613;48.902;9.204;2022-07-10T03:09:47;11.23;;;10.13;;
7142;SDS011;3613;48.902;9.204;2022-07-10T03:12:15;11.00;;;9.67;;
7142;SDS011;3613;48.902;9.204;2022-07-10T03:14:40;11.83;;;10.33;;
7142;SDS011;3613;48.902;9.204;2022-07-10T03:17:08;12.83;;;10.47;;
7142;SDS011;3613;48.902;9.204;2022-07-10T03:19:34;11.07;;;9.87;;
7142;SDS011;3613;48.902;9.204;2022-07-10T03:22:02;14.43;;;10.97;;
7142;SDS011;3613;48.902;9.204;2022-07-10T03:24:30;12.23;;;10.60;;
7142;SDS011;3613;48.902;9.204;2022-07-10T03:26:56;14.97;;;11.40;;
7142;SDS011;3613;48.902;9.204;2022-07-10T03:29:23;14.90;;;11.53;;
7142;SDS011;3613;48.902;9.204;2022-07-10T03:31:49;13.07;;;10.57;;
7142;SDS011;3613;48.902;9.204;2022-07-10T03:34:15;12.80;;;10.73;;
7142;SDS011;3613;48.902;9.204;2022-07-10T03:36:40;10.87;;;9.73;;
7142;SDS011;3613;48.902;9.204;2022-07-10T03:39:06;13.43;;;9.77;;
7142;SDS011;3613;48.902;9.204;2022-07-10T03:41:34;11.47;;;10.10;;
7142;SDS011;3613;48.902;9.204;2022-07-10T03:43:59;10.27;;;9.07;;
7142;SDS011;3613;48.902;9.204;2022-07-10T03:46:27;11.23;;;9.10;;
7142;SDS011;3613;48.902;9.204;2022-07-10T03:48:52;11.97;;;9.47;;
7142;SDS011;3613;48.902;9.204;2022-07-10T03:51:20;9.93;;;8.93;;
7142;SDS011;3613;48.902;9.204;2022-07-10T03:53:46;9.30;;;8.10;;
7142;SDS011;3613;48.902;9.204;2022-07-10T03:56:12;9.70;;;8.17;;
7142;SDS011;3613;48.902;9.204;2022-07-10T03:58:57;8.87;;;7.80;;
7142;SDS011;3613;48.902;9.204;2022-07-10T04:01:23;10.33;;;8.10;;
7142;SDS011;3613;48.902;9.204;2022-07-10T04:03:48;9.67;;;7.30;;
7142;SDS011;3613;48.902;9.204;2022-07-10T04:06:14;7.50;;;6.80;;
7142;SDS011;3613;48.902;9.204;2022-07-10T04:08:39;7.50;;;6.80;;
7142;SDS011;3613;48.902;9.204;2022-07-10T04:11:05;8.47;;;6.70;;
7142;SDS011;3613;48.902;9.204;2022-07-10T04:13:31;6.63;;;5.87;;
7142;SDS011;3613;48.902;9.204;2022-07-10T04:16:02;6.60;;;5.90;;
7142;SDS011;3613;48.902;9.204;2022-07-10T04:18:28;8.63;;;6.33;;
7142;SDS011;3613;48.902;9.204;2022-07-10T04:20:53;6.30;;;5.70;;
7142;SDS011;3613;48.902;9.204;2022-07-10T04:23:21;7.23;;;6.00;;
7142;SDS011;3613;48.902;9.204;2022-07-10T04:25:47;7.77;;;6.97;;
7142;SDS011;3613;48.902;9.204;2022-07-10T04:28:12;8.37;;;6.40;;
7142;SDS011;3613;48.902;9.204;2022-07-10T04:30:38;7.30;;;5.87;;
7142;SDS011;3613;48.902;9.204;2022-07-10T04:33:04;6.87;;;5.90;;
7142;SDS011;3613;48.902;9.204;2022-07-10T04:35:29;6.33;;;5.60;;
7142;SDS011;3613;48.902;9.204;2022-07-10T04:37:55;5.80;;;5.23;;
7142;SDS011;3613;48.902;9.204;2022-07-10T04:40:20;6.53;;;5.00;;
7142;SDS011;3613;48.902;9.204;2022-07-10T04:42:46;6.60;;;5.60;;
7142;SDS011;3613;48.902;9.204;2022-07-10T04:45:11;6.70;;;5.60;;
7142;SDS011;3613;48.902;9.204;2022-07-10T04:47:37;7.57;;;5.07;;
7142;SDS011;3613;48.902;9.204;2022-07-10T04:50:03;7.63;;;5.23;;
7142;SDS011;3613;48.902;9.204;2022-07-10T04:52:29;6.17;;;5.00;;
7142;SDS011;3613;48.902;9.204;2022-07-10T04:54:54;5.53;;;4.87;;
7142;SDS011;3613;48.902;9.204;2022-07-10T04:57:22;5.57;;;4.63;;
7142;SDS011;3613;48.902;9.204;2022-07-10T04:59:50;5.37;;;4.80;;
7142;SDS011;3613;48.902;9.204;2022-07-10T05:02:16;5.07;;;3.93;;
7142;SDS011;3613;48.902;9.204;2022-07-10T05:04:42;4.57;;;4.17;;
7142;SDS011;3613;48.902;9.204;2022-07-10T05:07:07;5.40;;;3.57;;
7142;SDS011;3613;48.902;9.204;2022-07-10T05:09:33;5.23;;;3.50;;
7142;SDS011;3613;48.902;9.204;2022-07-10T05:11:58;4.73;;;3.60;;
7142;SDS011;3613;48.902;9.204;2022-07-10T05:14:24;4.17;;;3.63;;
7142;SDS011;3613;48.902;9.204;2022-07-10T05:16:50;3.50;;;3.20;;
7142;SDS011;3613;48.902;9.204;2022-07-10T05:19:16;4.17;;;3.30;;
7142;SDS011;3613;48.902;9.204;2022-07-10T05:21:42;5.93;;;3.17;;
7142;SDS011;3613;48.902;9.204;2022-07-10T05:24:07;3.93;;;3.23;;
7142;SDS011;3613;48.902;9.204;2022-07-10T05:26:33;3.17;;;2.57;;
7142;SDS011;3613;48.902;9.204;2022-07-10T05:28:59;4.33;;;2.90;;
7142;SDS011;3613;48.902;9.204;2022-07-10T05:31:24;3.67;;;2.53;;
7142;SDS011;3613;48.902;9.204;2022-07-10T05:33:52;4.90;;;3.00;;
7142;SDS011;3613;48.902;9.204;2022-07-10T05:36:18;5.50;;;2.80;;
7142;SDS011;3613;48.902;9.204;2022-07-10T05:38:44;3.87;;;2.90;;
7142;SDS011;3613;48.902;9.204;2022-07-10T05:41:12;3.33;;;2.97;;
7142;SDS011;3613;48.902;9.204;2022-07-10T05:43:40;4.63;;;3.10;;
7142;SDS011;3613;48.902;9.204;2022-07-10T05:46:05;6.80;;;3.10;;
7142;SDS011;3613;48.902;9.204;2022-07-10T05:48:31;5.07;;;3.17;;
7142;SDS011;3613;48.902;9.204;2022-07-10T05:50:59;3.20;;;2.90;;
7142;SDS011;3613;48.902;9.204;2022-07-10T05:53:27;5.20;;;3.53;;
7142;SDS011;3613;48.902;9.204;2022-07-10T05:55:52;4.43;;;2.77;;
7142;SDS011;3613;48.902;9.204;2022-07-10T05:58:18;3.00;;;2.70;;
7142;SDS011;3613;48.902;9.204;2022-07-10T06:00:44;4.50;;;3.20;;
7142;SDS011;3613;48.902;9.204;2022-07-10T06:03:11;3.70;;;2.93;;
7142;SDS011;3613;48.902;9.204;2022-07-10T06:05:37;6.30;;;3.03;;
7142;SDS011;3613;48.902;9.204;2022-07-10T06:08:03;4.70;;;3.10;;
7142;SDS011;3613;48.902;9.204;2022-07-10T06:10:29;3.83;;;3.17;;
7142;SDS011;3613;48.902;9.204;2022-07-10T06:12:55;4.37;;;2.70;;
7142;SDS011;3613;48.902;9.204;2022-07-10T06:15:20;3.27;;;2.87;;
7142;SDS011;3613;48.902;9.204;2022-07-10T06:17:46;4.43;;;2.73;;
7142;SDS011;3613;48.902;9.204;2022-07-10T06:20:11;3.57;;;2.90;;
7142;SDS011;3613;48.902;9.204;2022-07-10T06:22:37;3.90;;;2.80;;
7142;SDS011;3613;48.902;9.204;2022-07-10T06:25:05;4.30;;;2.90;;
7142;SDS011;3613;48.902;9.204;2022-07-10T06:27:32;3.10;;;2.80;;
7142;SDS011;3613;48.902;9.204;2022-07-10T06:29:58;2.60;;;2.37;;
7142;SDS011;3613;48.902;9.204;2022-07-10T06:32:25;4.23;;;2.80;;
7142;SDS011;3613;48.902;9.204;2022-07-10T06:34:51;2.90;;;2.70;;
7142;SDS011;3613;48.902;9.204;2022-07-10T06:37:18;2.80;;;2.40;;
7142;SDS011;3613;48.902;9.204;2022-07-10T06:39:46;2.97;;;2.33;;
7142;SDS011;3613;48.902;9.204;2022-07-10T06:42:13;3.60;;;2.50;;
7142;SDS011;3613;48.902;9.204;2022-07-10T06:44:39;3.27;;;2.33;;
7142;SDS011;3613;48.902;9.204;2022-07-10T06:47:05;3.43;;;2.17;;
7142;SDS011;3613;48.902;9.204;2022-07-10T06:49:50;2.60;;;2.30;;
7142;SDS011;3613;48.902;9.204;2022-07-10T06:52:19;2.93;;;2.50;;
7142;SDS011;3613;48.902;9.204;2022-07-10T06:54:44;3.23;;;2.43;;
7142;SDS011;3613;48.902;9.204;2022-07-10T06:57:11;5.43;;;3.07;;
7142;SDS011;3613;48.902;9.204;2022-07-10T06:59:36;6.30;;;3.17;;
7142;SDS011;3613;48.902;9.204;2022-07-10T07:02:04;7.47;;;4.47;;
7142;SDS011;3613;48.902;9.204;2022-07-10T07:04:31;5.83;;;2.50;;
7142;SDS011;3613;48.902;9.204;2022-07-10T07:06:56;5.07;;;2.67;;
7142;SDS011;3613;48.902;9.204;2022-07-10T07:09:24;2.97;;;2.50;;
7142;SDS011;3613;48.902;9.204;2022-07-10T07:11:50;5.00;;;2.80;;
7142;SDS011;3613;48.902;9.204;2022-07-10T07:14:15;5.87;;;2.47;;
7142;SDS011;3613;48.902;9.204;2022-07-10T07:16:41;2.10;;;1.90;;
7142;SDS011;3613;48.902;9.204;2022-07-10T07:19:11;6.03;;;2.40;;
7142;SDS011;3613;48.902;9.204;2022-07-10T07:21:42;4.50;;;2.20;;
7142;SDS011;3613;48.902;9.204;2022-07-10T07:24:29;5.33;;;2.20;;
7142;SDS011;3613;48.902;9.204;2022-07-10T07:26:57;3.17;;;2.00;;
7142;SDS011;3613;48.902;9.204;2022-07-10T07:29:25;4.33;;;2.10;;
7142;SDS011;3613;48.902;9.204;2022-07-10T07:31:51;4.37;;;1.80;;
7142;SDS011;3613;48.902;9.204;2022-07-10T07:34:19;2.30;;;1.67;;
7142;SDS011;3613;48.902;9.204;2022-07-10T07:36:45;4.17;;;2.10;;
7142;SDS011;3613;48.902;9.204;2022-07-10T07:39:12;2.40;;;2.10;;
7142;SDS011;3613;48.902;9.204;2022-07-10T07:41:40;2.50;;;1.60;;
7142;SDS011;3613;48.902;9.204;2022-07-10T07:44:06;4.23;;;1.67;;
7142;SDS011;3613;48.902;9.204;2022-07-10T07:46:34;5.40;;;1.93;;
7142;SDS011;3613;48.902;9.204;2022-07-10T07:49:02;2.00;;;1.53;;
7142;SDS011;3613;48.902;9.204;2022-07-10T07:51:27;2.20;;;1.70;;
7142;SDS011;3613;48.902;9.204;2022-07-10T07:53:53;4.13;;;1.67;;
7142;SDS011;3613;48.902;9.204;2022-07-10T07:56:19;3.60;;;1.70;;
7142;SDS011;3613;48.902;9.204;2022-07-10T07:58:47;3.83;;;1.83;;
7142;SDS011;3613;48.902;9.204;2022-07-10T08:01:15;2.00;;;1.80;;
7142;SDS011;3613;48.902;9.204;2022-07-10T08:03:44;3.40;;;1.70;;
7142;SDS011;3613;48.902;9.204;2022-07-10T08:06:14;4.13;;;2.10;;
7142;SDS011;3613;48.902;9.204;2022-07-10T08:08:47;3.23;;;2.00;;
7142;SDS011;3613;48.902;9.204;2022-07-10T08:11:13;2.93;;;2.10;;
7142;SDS011;3613;48.902;9.204;2022-07-10T08:13:38;3.33;;;1.63;;
7142;SDS011;3613;48.902;9.204;2022-07-10T08:16:08;3.00;;;1.73;;
7142;SDS011;3613;48.902;9.204;2022-07-10T08:18:34;3.23;;;2.00;;
7142;SDS011;3613;48.902;9.204;2022-07-10T08:21:04;3.00;;;1.60;;
7142;SDS011;3613;48.902;9.204;2022-07-10T08:23:30;5.33;;;1.50;;
7142;SDS011;3613;48.902;9.204;2022-07-10T08:25:55;4.73;;;1.73;;
7142;SDS011;3613;48.902;9.204;2022-07-10T08:28:23;4.53;;;2.13;;
7142;SDS011;3613;48.902;9.204;2022-07-10T08:30:49;3.07;;;1.63;;
7142;SDS011;3613;48.902;9.204;2022-07-10T08:33:14;2.83;;;1.87;;
7142;SDS011;3613;48.902;9.204;2022-07-10T08:35:42;2.47;;;1.23;;
7142;SDS011;3613;48.902;9.204;2022-07-10T08:38:08;4.30;;;2.00;;
7142;SDS011;3613;48.902;9.204;2022-07-10T08:40:37;1.80;;;1.57;;
7142;SDS011;3613;48.902;9.204;2022-07-10T08:43:04;3.90;;;1.80;;
7142;SDS011;3613;48.902;9.204;2022-07-10T08:45:31;2.50;;;1.70;;
7142;SDS011;3613;48.902;9.204;2022-07-10T08:48:01;2.67;;;1.50;;
7142;SDS011;3613;48.902;9.204;2022-07-10T08:50:29;3.03;;;1.40;;
7142;SDS011;3613;48.902;9.204;2022-07-10T08:53:08;2.93;;;1.57;;
7142;SDS011;3613;48.902;9.204;2022-07-10T08:55:37;1.57;;;1.27;;
7142;SDS011;3613;48.902;9.204;2022-07-10T08:58:06;2.93;;;1.63;;
7142;SDS011;3613;48.902;9.204;2022-07-10T09:00:35;4.00;;;1.70;;
7142;SDS011;3613;48.902;9.204;2022-07-10T09:03:00;2.43;;;1.40;;
7142;SDS011;3613;48.902;9.204;2022-07-10T09:05:26;1.87;;;1.40;;
7142;SDS011;3613;48.902;9.204;2022-07-10T09:07:52;2.97;;;1.53;;
7142;SDS011;3613;48.902;9.204;2022-07-10T09:10:19;1.93;;;1.43;;
7142;SDS011;3613;48.902;9.204;2022-07-10T09:15:26;2.83;;;1.60;;
7142;SDS011;3613;48.902;9.204;2022-07-10T09:18:04;2.50;;;1.50;;
7142;SDS011;3613;48.902;9.204;2022-07-10T09:20:33;3.57;;;1.70;;
7142;SDS011;3613;48.902;9.204;2022-07-10T09:23:15;2.17;;;1.30;;
7142;SDS011;3613;48.902;9.204;2022-07-10T09:25:51;3.37;;;1.43;;
7142;SDS011;3613;48.902;9.204;2022-07-10T09:28:18;3.27;;;1.53;;
7142;SDS011;3613;48.902;9.204;2022-07-10T09:30:45;2.27;;;1.43;;
7142;SDS011;3613;48.902;9.204;2022-07-10T09:33:18;2.10;;;1.53;;
7142;SDS011;3613;48.902;9.204;2022-07-10T09:35:55;2.10;;;1.43;;
7142;SDS011;3613;48.902;9.204;2022-07-10T09:41:28;2.83;;;1.20;;
7142;SDS011;3613;48.902;9.204;2022-07-10T09:43:56;2.13;;;1.20;;
7142;SDS011;3613;48.902;9.204;2022-07-10T09:49:02;2.23;;;1.60;;
7142;SDS011;3613;48.902;9.204;2022-07-10T09:51:32;2.23;;;1.37;;
7142;SDS011;3613;48.902;9.204;2022-07-10T09:54:00;3.00;;;1.43;;
7142;SDS011;3613;48.902;9.204;2022-07-10T09:56:27;2.90;;;1.30;;
7142;SDS011;3613;48.902;9.204;2022-07-10T09:58:58;3.77;;;1.50;;
7142;SDS011;3613;48.902;9.204;2022-07-10T10:01:28;1.40;;;1.30;;
7142;SDS011;3613;48.902;9.204;2022-07-10T10:03:57;2.10;;;1.47;;
7142;SDS011;3613;48.902;9.204;2022-07-10T10:06:26;2.60;;;1.40;;
7142;SDS011;3613;48.902;9.204;2022-07-10T10:09:03;2.80;;;1.30;;
7142;SDS011;3613;48.902;9.204;2022-07-10T10:11:35;2.07;;;1.40;;
7142;SDS011;3613;48.902;9.204;2022-07-10T10:14:04;2.33;;;1.43;;
7142;SDS011;3613;48.902;9.204;2022-07-10T10:16:32;1.93;;;1.20;;
7142;SDS011;3613;48.902;9.204;2022-07-10T10:18:58;4.00;;;1.20;;
7142;SDS011;3613;48.902;9.204;2022-07-10T10:21:43;1.90;;;1.30;;
7142;SDS011;3613;48.902;9.204;2022-07-10T10:24:09;3.47;;;1.60;;
7142;SDS011;3613;48.902;9.204;2022-07-10T10:26:38;3.17;;;1.70;;
7142;SDS011;3613;48.902;9.204;2022-07-10T10:29:05;2.87;;;1.40;;
7142;SDS011;3613;48.902;9.204;2022-07-10T10:31:31;2.50;;;1.10;;
7142;SDS011;3613;48.902;9.204;2022-07-10T10:33:57;2.43;;;1.40;;
7142;SDS011;3613;48.902;9.204;2022-07-10T10:49:18;2.97;;;1.60;;
7142;SDS011;3613;48.902;9.204;2022-07-10T10:52:00;3.40;;;1.60;;
7142;SDS011;3613;48.902;9.204;2022-07-10T10:57:21;1.30;;;1.20;;
7142;SDS011;3613;48.902;9.204;2022-07-10T10:59:48;3.63;;;1.80;;
7142;SDS011;3613;48.902;9.204;2022-07-10T11:04:50;2.70;;;1.40;;
7142;SDS011;3613;48.902;9.204;2022-07-10T11:15:21;2.53;;;1.50;;
7142;SDS011;3613;48.902;9.204;2022-07-10T11:17:47;1.80;;;1.20;;
7142;SDS011;3613;48.902;9.204;2022-07-10T11:20:13;2.90;;;1.70;;
7142;SDS011;3613;48.902;9.204;2022-07-10T11:25:49;1.47;;;1.37;;
7142;SDS011;3613;48.902;9.204;2022-07-10T11:28:36;1.70;;;1.37;;
7142;SDS011;3613;48.902;9.204;2022-07-10T11:31:06;2.93;;;1.40;;
7142;SDS011;3613;48.902;9.204;2022-07-10T11:33:40;2.90;;;1.30;;
7142;SDS011;3613;48.902;9.204;2022-07-10T11:36:17;3.33;;;1.60;;
7142;SDS011;3613;48.902;9.204;2022-07-10T11:38:45;1.50;;;1.20;;
7142;SDS011;3613;48.902;9.204;2022-07-10T11:41:18;2.47;;;1.47;;
7142;SDS011;3613;48.902;9.204;2022-07-10T11:43:47;3.20;;;1.47;;
7142;SDS011;3613;48.902;9.204;2022-07-10T11:46:25;2.27;;;1.47;;
7142;SDS011;3613;48.902;9.204;2022-07-10T11:48:53;2.37;;;1.10;;
7142;SDS011;3613;48.902;9.204;2022-07-10T11:51:26;3.40;;;1.43;;
7142;SDS011;3613;48.902;9.204;2022-07-10T11:54:01;2.20;;;1.20;;
7142;SDS011;3613;48.902;9.204;2022-07-10T11:56:28;2.77;;;1.30;;
7142;SDS011;3613;48.902;9.204;2022-07-10T11:59:02;4.57;;;2.03;;
7142;SDS011;3613;48.902;9.204;2022-07-10T12:01:31;3.57;;;1.40;;
7142;SDS011;3613;48.902;9.204;2022-07-10T12:03:59;48.37;;;23.67;;
7142;SDS011;3613;48.902;9.204;2022-07-10T12:06:27;3.10;;;1.93;;
7142;SDS011;3613;48.902;9.204;2022-07-10T12:08:54;2.60;;;1.63;;
7142;SDS011;3613;48.902;9.204;2022-07-10T12:11:20;2.30;;;1.30;;
7142;SDS011;3613;48.902;9.204;2022-07-10T12:13:47;2.17;;;1.10;;
7142;SDS011;3613;48.902;9.204;2022-07-10T12:16:19;3.23;;;1.23;;
7142;SDS011;3613;48.902;9.204;2022-07-10T12:18:49;2.50;;;1.20;;
7142;SDS011;3613;48.902;9.204;2022-07-10T12:21:17;1.80;;;1.10;;
7142;SDS011;3613;48.902;9.204;2022-07-10T12:23:43;4.30;;;1.50;;
7142;SDS011;3613;48.902;9.204;2022-07-10T12:26:13;3.10;;;1.40;;
7142;SDS011;3613;48.902;9.204;2022-07-10T12:29:00;1.87;;;1.40;;
7142;SDS011;3613;48.902;9.204;2022-07-10T12:31:28;1.30;;;1.20;;
7142;SDS011;3613;48.902;9.204;2022-07-10T12:34:00;3.17;;;1.30;;
7142;SDS011;3613;48.902;9.204;2022-07-10T12:36:41;1.97;;;1.20;;
7142;SDS011;3613;48.902;9.204;2022-07-10T12:39:20;1.97;;;1.57;;
7142;SDS011;3613;48.902;9.204;2022-07-10T12:41:53;1.97;;;0.90;;
7142;SDS011;3613;48.902;9.204;2022-07-10T12:49:55;2.17;;;1.23;;
7142;SDS011;3613;48.902;9.204;2022-07-10T12:52:40;2.87;;;1.07;;
7142;SDS011;3613;48.902;9.204;2022-07-10T12:55:07;2.33;;;1.23;;
7142;SDS011;3613;48.902;9.204;2022-07-10T12:57:53;3.77;;;1.20;;
7142;SDS011;3613;48.902;9.204;2022-07-10T13:00:26;2.43;;;1.10;;
7142;SDS011;3613;48.902;9.204;2022-07-10T13:02:59;2.90;;;1.00;;
7142;SDS011;3613;48.902;9.204;2022-07-10T13:05:33;3.40;;;1.10;;
7142;SDS011;3613;48.902;9.204;2022-07-10T13:08:14;2.93;;;1.10;;
7142;SDS011;3613;48.902;9.204;2022-07-10T13:10:48;3.17;;;1.30;;
7142;SDS011;3613;48.902;9.204;2022-07-10T13:13:17;2.13;;;1.50;;
7142;SDS011;3613;48.902;9.204;2022-07-10T13:15:44;2.83;;;0.90;;
7142;SDS011;3613;48.902;9.204;2022-07-10T13:18:15;1.60;;;0.80;;
7142;SDS011;3613;48.902;9.204;2022-07-10T13:20:49;2.10;;;1.00;;
7142;SDS011;3613;48.902;9.204;2022-07-10T13:23:17;1.83;;;1.10;;
7142;SDS011;3613;48.902;9.204;2022-07-10T13:25:50;1.27;;;0.83;;
7142;SDS011;3613;48.902;9.204;2022-07-10T13:28:19;1.70;;;1.10;;
7142;SDS011;3613;48.902;9.204;2022-07-10T13:30:45;1.70;;;1.13;;
7142;SDS011;3613;48.902;9.204;2022-07-10T13:33:11;1.43;;;1.00;;
7142;SDS011;3613;48.902;9.204;2022-07-10T13:35:37;2.67;;;1.03;;
7142;SDS011;3613;48.902;9.204;2022-07-10T13:38:03;1.90;;;0.97;;
7142;SDS011;3613;48.902;9.204;2022-07-10T13:40:33;1.17;;;1.00;;
7142;SDS011;3613;48.902;9.204;2022-07-10T13:43:01;2.27;;;0.93;;
7142;SDS011;3613;48.902;9.204;2022-07-10T13:45:28;3.00;;;1.10;;
7142;SDS011;3613;48.902;9.204;2022-07-10T13:47:58;1.93;;;1.10;;
7142;SDS011;3613;48.902;9.204;2022-07-10T13:50:27;3.17;;;1.10;;
7142;SDS011;3613;48.902;9.204;2022-07-10T13:52:55;1.50;;;0.90;;
7142;SDS011;3613;48.902;9.204;2022-07-10T13:55:20;3.00;;;1.40;;
7142;SDS011;3613;48.902;9.204;2022-07-10T13:57:50;4.00;;;1.03;;
7142;SDS011;3613;48.902;9.204;2022-07-10T14:00:16;3.70;;;1.17;;
7142;SDS011;3613;48.902;9.204;2022-07-10T14:02:42;3.20;;;1.40;;
7142;SDS011;3613;48.902;9.204;2022-07-10T14:05:10;1.27;;;0.90;;
7142;SDS011;3613;48.902;9.204;2022-07-10T14:07:35;3.27;;;1.17;;
7142;SDS011;3613;48.902;9.204;2022-07-10T14:10:02;2.20;;;1.10;;
7142;SDS011;3613;48.902;9.204;2022-07-10T14:12:28;2.90;;;1.20;;
7142;SDS011;3613;48.902;9.204;2022-07-10T14:14:56;1.90;;;1.20;;
7142;SDS011;3613;48.902;9.204;2022-07-10T14:17:22;1.47;;;1.10;;
7142;SDS011;3613;48.902;9.204;2022-07-10T14:19:50;1.60;;;0.90;;
7142;SDS011;3613;48.902;9.204;2022-07-10T14:22:16;2.37;;;1.20;;
7142;SDS011;3613;48.902;9.204;2022-07-10T14:24:41;1.37;;;1.07;;
7142;SDS011;3613;48.902;9.204;2022-07-10T14:27:07;1.93;;;0.90;;
7142;SDS011;3613;48.902;9.204;2022-07-10T14:29:33;1.87;;;1.00;;
7142;SDS011;3613;48.902;9.204;2022-07-10T14:32:01;1.93;;;1.10;;
7142;SDS011;3613;48.902;9.204;2022-07-10T14:34:27;1.30;;;0.90;;
7142;SDS011;3613;48.902;9.204;2022-07-10T14:36:54;2.57;;;1.27;;
7142;SDS011;3613;48.902;9.204;2022-07-10T14:39:22;2.77;;;1.00;;
7142;SDS011;3613;48.902;9.204;2022-07-10T14:41:48;2.07;;;0.90;;
7142;SDS011;3613;48.902;9.204;2022-07-10T14:44:13;4.27;;;1.17;;
7142;SDS011;3613;48.902;9.204;2022-07-10T14:46:39;1.23;;;0.97;;
7142;SDS011;3613;48.902;9.204;2022-07-10T14:49:04;2.03;;;0.87;;
7142;SDS011;3613;48.902;9.204;2022-07-10T14:51:32;2.10;;;1.60;;
7142;SDS011;3613;48.902;9.204;2022-07-10T14:54:00;1.17;;;0.80;;
7142;SDS011;3613;48.902;9.204;2022-07-10T14:56:28;1.30;;;0.77;;
7142;SDS011;3613;48.902;9.204;2022-07-10T14:58:54;3.27;;;1.30;;
7142;SDS011;3613;48.902;9.204;2022-07-10T15:01:19;2.73;;;1.13;;
7142;SDS011;3613;48.902;9.204;2022-07-10T15:03:45;2.50;;;1.00;;
7142;SDS011;3613;48.902;9.204;2022-07-10T15:06:11;1.07;;;0.90;;
7142;SDS011;3613;48.902;9.204;2022-07-10T15:08:36;2.23;;;1.20;;
7142;SDS011;3613;48.902;9.204;2022-07-10T15:11:02;1.50;;;1.00;;
7142;SDS011;3613;48.902;9.204;2022-07-10T15:13:29;2.63;;;0.80;;
7142;SDS011;3613;48.902;9.204;2022-07-10T15:15:55;2.73;;;1.00;;
7142;SDS011;3613;48.902;9.204;2022-07-10T15:18:21;1.40;;;1.30;;
7142;SDS011;3613;48.902;9.204;2022-07-10T15:20:47;3.77;;;1.10;;
7142;SDS011;3613;48.902;9.204;2022-07-10T15:23:13;2.80;;;1.20;;
7142;SDS011;3613;48.902;9.204;2022-07-10T15:25:42;2.10;;;1.07;;
7142;SDS011;3613;48.902;9.204;2022-07-10T15:28:08;1.57;;;0.97;;
7142;SDS011;3613;48.902;9.204;2022-07-10T15:30:35;3.47;;;1.50;;
7142;SDS011;3613;48.902;9.204;2022-07-10T15:33:02;1.63;;;0.90;;
7142;SDS011;3613;48.902;9.204;2022-07-10T15:35:31;2.00;;;1.20;;
7142;SDS011;3613;48.902;9.204;2022-07-10T15:37:59;3.30;;;1.23;;
7142;SDS011;3613;48.902;9.204;2022-07-10T15:40:28;1.37;;;1.10;;
7142;SDS011;3613;48.902;9.204;2022-07-10T15:42:55;2.93;;;1.00;;
7142;SDS011;3613;48.902;9.204;2022-07-10T15:45:26;4.10;;;1.50;;
7142;SDS011;3613;48.902;9.204;2022-07-10T15:47:52;1.57;;;1.20;;
7142;SDS011;3613;48.902;9.204;2022-07-10T15:50:18;1.43;;;0.90;;
7142;SDS011;3613;48.902;9.204;2022-07-10T15:52:44;2.57;;;1.57;;
7142;SDS011;3613;48.902;9.204;2022-07-10T15:55:10;1.37;;;0.90;;
7142;SDS011;3613;48.902;9.204;2022-07-10T15:57:40;2.03;;;1.10;;
7142;SDS011;3613;48.902;9.204;2022-07-10T16:00:06;2.07;;;0.97;;